Time;durP1;ratioP1;P1;durP2;ratioP2;P2;SDS_P1;SDS_P2;PMS_P1;PMS_P2;Temp;Humidity;BMP_temperature;BMP_pressure;BME280_temperature;BME280_humidity;BME280_pressure;Samples;Min_cycle;Max_cycle;Signal;HPM_P1;HPM_P2
2021/09/24 00:01:47;;;;;;;10.30;9.50;;;11.80;99.90;;;;;;4953697;28;20243;-76
2021/09/24 00:04:15;;;;;;;10.30;9.60;;;11.70;99.90;;;;;;4973313;28;20281;-76
2021/09/24 00:06:43;;;;;;;10.07;9.37;;;11.70;99.90;;;;;;4952584;28;20207;-76
2021/09/24 00:09:11;;;;;;;10.30;9.50;;;11.60;99.90;;;;;;4954871;28;20708;-76
2021/09/24 00:11:39;;;;;;;10.70;9.87;;;11.60;99.90;;;;;;4957123;28;20201;-76
2021/09/24 00:14:07;;;;;;;10.33;9.53;;;11.50;99.90;;;;;;4970068;28;20297;-76
2021/09/24 00:16:36;;;;;;;11.57;10.60;;;11.40;99.90;;;;;;4973745;28;20265;-76
2021/09/24 00:19:04;;;;;;;11.00;10.20;;;11.40;99.90;;;;;;4970371;28;20195;-76
2021/09/24 00:21:31;;;;;;;10.43;9.63;;;11.40;99.90;;;;;;4972925;28;20673;-76
2021/09/24 00:23:58;;;;;;;10.77;9.97;;;11.30;99.90;;;;;;4969743;28;20218;-76
2021/09/24 00:26:25;;;;;;;10.43;9.63;;;11.30;99.90;;;;;;4954627;28;20630;-76
2021/09/24 00:28:52;;;;;;;11.13;10.23;;;11.20;99.90;;;;;;4974366;28;20213;-76
2021/09/24 00:31:19;;;;;;;11.30;10.43;;;11.20;99.90;;;;;;4971228;28;20199;-77
2021/09/24 00:33:46;;;;;;;10.57;9.77;;;11.20;99.90;;;;;;4955936;28;20225;-76
2021/09/24 00:36:14;;;;;;;11.00;10.20;;;11.20;99.90;;;;;;4946531;28;20226;-76
2021/09/24 00:38:41;;;;;;;10.07;9.37;;;11.20;99.90;;;;;;5089910;23;20227;-79
2021/09/24 00:41:09;;;;;;;10.50;9.70;;;11.20;99.90;;;;;;5017002;28;20262;-78
2021/09/24 00:43:36;;;;;;;11.13;10.13;;;11.20;99.90;;;;;;4999748;28;20213;-78
2021/09/24 00:46:04;;;;;;;10.63;9.70;;;11.20;99.90;;;;;;5017390;28;20209;-78
2021/09/24 00:48:31;;;;;;;10.53;9.73;;;11.10;99.90;;;;;;5016145;28;20266;-78
2021/09/24 00:50:58;;;;;;;10.70;9.80;;;11.20;99.90;;;;;;4985256;28;20304;-78
2021/09/24 00:53:27;;;;;;;10.50;9.70;;;11.20;99.90;;;;;;5005333;28;20236;-78
2021/09/24 00:55:53;;;;;;;11.03;10.10;;;11.10;99.90;;;;;;4996895;28;20750;-78
2021/09/24 00:58:20;;;;;;;11.03;10.13;;;11.10;99.90;;;;;;5004331;28;20202;-78
2021/09/24 01:00:47;;;;;;;10.53;9.67;;;11.10;99.90;;;;;;5011215;28;20212;-78
2021/09/24 01:03:14;;;;;;;10.27;9.40;;;11.10;99.90;;;;;;4986099;28;20209;-78
2021/09/24 01:05:41;;;;;;;11.03;10.13;;;11.10;99.90;;;;;;4982008;28;20201;-78
2021/09/24 01:08:09;;;;;;;10.70;9.80;;;11.10;99.90;;;;;;4986000;28;20225;-78
2021/09/24 01:10:37;;;;;;;10.90;9.97;;;11.00;99.90;;;;;;4989250;28;20225;-78
2021/09/24 01:13:04;;;;;;;10.67;9.87;;;11.00;99.90;;;;;;5004115;28;20193;-78
2021/09/24 01:15:31;;;;;;;10.63;9.73;;;11.00;99.90;;;;;;5003759;28;20196;-78
2021/09/24 01:17:57;;;;;;;10.43;9.43;;;10.90;99.90;;;;;;4977910;28;20729;-78
2021/09/24 01:20:24;;;;;;;11.30;10.40;;;11.00;99.90;;;;;;5002319;28;20221;-78
2021/09/24 01:22:53;;;;;;;11.17;10.17;;;10.90;99.90;;;;;;5007130;28;20197;-78
2021/09/24 01:25:22;;;;;;;10.23;9.43;;;10.90;99.90;;;;;;4979302;28;20663;-77
2021/09/24 01:27:48;;;;;;;10.57;9.77;;;10.90;99.90;;;;;;4987590;28;20235;-77
2021/09/24 01:30:16;;;;;;;10.50;9.60;;;10.80;99.90;;;;;;4983121;28;20271;-78
2021/09/24 01:32:43;;;;;;;10.90;10.00;;;10.80;99.90;;;;;;5003736;28;20200;-77
2021/09/24 01:35:11;;;;;;;11.13;10.27;;;10.70;99.90;;;;;;5002216;28;20208;-78
2021/09/24 01:37:39;;;;;;;11.43;10.53;;;10.70;99.90;;;;;;4985177;28;20197;-78
2021/09/24 01:40:12;;;;;;;11.67;10.77;;;10.70;99.90;;;;;;5001872;28;20247;-78
2021/09/24 01:42:39;;;;;;;12.03;11.10;;;10.60;99.90;;;;;;5005217;28;20205;-78
2021/09/24 01:45:07;;;;;;;11.70;10.70;;;10.60;99.90;;;;;;4977747;28;20209;-78
2021/09/24 01:47:34;;;;;;;12.33;11.30;;;10.50;99.90;;;;;;5002974;28;20212;-78
2021/09/24 01:50:01;;;;;;;11.50;10.60;;;10.50;99.90;;;;;;5001010;28;20246;-78
2021/09/24 01:52:29;;;;;;;11.80;10.80;;;10.40;99.90;;;;;;4984966;28;20205;-77
2021/09/24 01:54:56;;;;;;;12.63;11.63;;;10.30;99.90;;;;;;5004708;28;20184;-79
2021/09/24 01:57:24;;;;;;;11.80;10.90;;;10.30;99.90;;;;;;5003294;28;20209;-78
2021/09/24 01:59:51;;;;;;;12.47;11.47;;;10.20;99.90;;;;;;4986961;28;20639;-77
2021/09/24 02:02:19;;;;;;;11.57;10.67;;;10.20;99.90;;;;;;4984213;28;20200;-78
2021/09/24 02:04:46;;;;;;;12.30;11.30;;;10.10;99.90;;;;;;4987131;28;20208;-78
2021/09/24 02:07:13;;;;;;;12.33;11.33;;;10.10;99.90;;;;;;4981614;28;20690;-78
2021/09/24 02:09:40;;;;;;;11.80;10.90;;;10.00;99.90;;;;;;4976450;28;20655;-77
2021/09/24 02:12:07;;;;;;;11.93;11.03;;;10.00;99.90;;;;;;4981833;28;20212;-77
2021/09/24 02:14:36;;;;;;;12.23;11.30;;;9.90;99.90;;;;;;4980072;28;20201;-78
2021/09/24 02:17:04;;;;;;;12.33;11.43;;;9.90;99.90;;;;;;5000911;28;20201;-78
2021/09/24 02:19:31;;;;;;;13.20;12.20;;;9.80;99.90;;;;;;5002136;28;20215;-78
2021/09/24 02:21:58;;;;;;;12.30;11.20;;;9.80;99.90;;;;;;4987523;28;20727;-77
2021/09/24 02:24:25;;;;;;;12.97;11.63;;;9.80;99.90;;;;;;4987266;28;20200;-77
2021/09/24 02:26:52;;;;;;;13.17;11.97;;;9.80;99.90;;;;;;5001764;28;20208;-78
2021/09/24 02:29:19;;;;;;;12.97;11.77;;;9.70;99.90;;;;;;5001130;28;20229;-78
2021/09/24 02:31:47;;;;;;;13.37;12.37;;;9.70;99.90;;;;;;5002347;28;20205;-78
2021/09/24 02:34:14;;;;;;;13.17;12.07;;;9.70;99.90;;;;;;4977294;28;20205;-77
2021/09/24 02:36:41;;;;;;;12.70;11.70;;;9.70;99.90;;;;;;5004129;28;20204;-77
2021/09/24 02:39:09;;;;;;;12.63;11.63;;;9.80;99.90;;;;;;4983042;28;20275;-77
2021/09/24 02:41:36;;;;;;;13.47;12.27;;;9.90;99.90;;;;;;5003006;28;20208;-78
2021/09/24 02:44:03;;;;;;;12.97;11.97;;;10.00;99.90;;;;;;4998574;28;20193;-76
2021/09/24 02:46:30;;;;;;;13.43;12.37;;;10.00;99.90;;;;;;5005237;28;20238;-76
2021/09/24 02:48:58;;;;;;;13.87;12.67;;;10.10;99.90;;;;;;4996264;28;20283;-76
2021/09/24 02:51:25;;;;;;;13.43;12.43;;;10.10;99.90;;;;;;5008511;28;20614;-77
2021/09/24 02:53:52;;;;;;;12.57;11.57;;;10.10;99.90;;;;;;4986555;28;20209;-76
2021/09/24 02:56:19;;;;;;;18.50;17.20;;;10.10;99.90;;;;;;4985791;28;20283;-76
2021/09/24 02:58:46;;;;;;;15.93;14.73;;;10.10;99.90;;;;;;4994138;28;20635;-77
2021/09/24 03:01:12;;;;;;;14.03;12.93;;;10.20;99.90;;;;;;5010490;28;20196;-76
2021/09/24 03:03:39;;;;;;;12.70;11.70;;;10.20;99.90;;;;;;4984297;28;20259;-76
2021/09/24 03:06:08;;;;;;;15.30;14.10;;;10.20;99.90;;;;;;5001861;28;20230;-76
2021/09/24 03:08:34;;;;;;;13.10;11.90;;;10.20;99.90;;;;;;5003727;28;20688;-76
2021/09/24 03:11:01;;;;;;;13.17;12.07;;;10.20;99.90;;;;;;4995483;28;20259;-76
2021/09/24 03:13:28;;;;;;;14.27;13.07;;;10.20;99.90;;;;;;4981331;28;20209;-76
2021/09/24 03:15:55;;;;;;;15.93;14.43;;;10.20;99.90;;;;;;5012156;28;20242;-76
2021/09/24 03:18:22;;;;;;;15.13;13.63;;;10.20;99.90;;;;;;5010338;28;20286;-77
2021/09/24 03:20:50;;;;;;;15.93;14.33;;;10.20;99.90;;;;;;5010559;28;20262;-80
2021/09/24 03:23:19;;;;;;;16.87;15.07;;;10.30;99.90;;;;;;4991059;28;20205;-76
2021/09/24 03:25:47;;;;;;;16.10;14.30;;;10.30;99.90;;;;;;5012030;28;20251;-76
2021/09/24 03:28:14;;;;;;;15.27;13.77;;;10.20;99.90;;;;;;5005510;28;20672;-78
2021/09/24 03:30:41;;;;;;;17.97;15.03;;;10.30;99.90;;;;;;4983977;28;20268;-79
2021/09/24 03:33:07;;;;;;;17.77;15.87;;;10.30;99.90;;;;;;5002266;28;20193;-79
2021/09/24 03:35:34;;;;;;;16.80;15.10;;;10.20;99.90;;;;;;5003384;28;20189;-78
2021/09/24 03:38:01;;;;;;;16.87;15.13;;;10.10;99.90;;;;;;4977734;28;20716;-78
2021/09/24 03:40:29;;;;;;;17.07;15.33;;;10.10;99.90;;;;;;4983469;28;20228;-77
2021/09/24 03:42:58;;;;;;;15.87;14.43;;;10.10;99.90;;;;;;4975978;28;20201;-76
2021/09/24 03:45:25;;;;;;;16.83;15.23;;;10.00;99.90;;;;;;4981238;28;20485;-76
2021/09/24 03:47:52;;;;;;;12.10;8.13;;;10.00;99.90;;;;;;4985083;28;20545;-76
2021/09/24 03:50:19;;;;;;;12.53;8.97;;;10.00;99.90;;;;;;5006079;28;20217;-76
2021/09/24 03:52:46;;;;;;;12.23;8.37;;;10.00;99.90;;;;;;4989297;28;20196;-76
2021/09/24 03:55:13;;;;;;;11.50;7.80;;;10.00;99.90;;;;;;4980801;28;20213;-77
2021/09/24 03:57:41;;;;;;;15.33;14.03;;;9.90;99.90;;;;;;5008670;28;20256;-76
2021/09/24 04:00:08;;;;;;;16.07;14.57;;;9.80;99.90;;;;;;5008052;28;20705;-76
2021/09/24 04:02:39;;;;;;;15.50;13.97;;;9.80;99.90;;;;;;5010462;28;20207;-76
2021/09/24 04:05:06;;;;;;;15.17;13.87;;;9.80;99.90;;;;;;5008710;28;20251;-77
2021/09/24 04:07:33;;;;;;;14.00;12.80;;;9.70;99.90;;;;;;5007629;28;20202;-76
2021/09/24 04:10:00;;;;;;;16.70;15.27;;;9.80;99.90;;;;;;5009099;28;20228;-76
2021/09/24 04:12:26;;;;;;;15.20;14.00;;;9.80;99.90;;;;;;4992420;28;20691;-76
2021/09/24 04:14:55;;;;;;;15.57;14.37;;;9.90;99.90;;;;;;4988197;28;20235;-76
2021/09/24 04:17:21;;;;;;;18.13;16.73;;;9.80;99.90;;;;;;4986827;28;20674;-76
2021/09/24 04:19:48;;;;;;;13.73;12.53;;;9.80;99.90;;;;;;4990886;28;20209;-76
2021/09/24 04:22:15;;;;;;;13.90;12.77;;;9.80;99.90;;;;;;4983646;28;20211;-76
2021/09/24 04:24:42;;;;;;;13.20;12.00;;;9.80;99.90;;;;;;5007417;28;20697;-76
2021/09/24 04:27:09;;;;;;;14.37;13.03;;;9.80;99.90;;;;;;5004462;28;20613;-76
2021/09/24 04:29:36;;;;;;;14.77;13.47;;;9.80;99.90;;;;;;4993714;28;20628;-76
2021/09/24 04:32:04;;;;;;;15.57;14.00;;;9.70;99.90;;;;;;4992197;28;20219;-76
2021/09/24 04:34:31;;;;;;;14.90;13.60;;;9.70;99.90;;;;;;5008389;28;20254;-76
2021/09/24 04:36:58;;;;;;;15.80;14.33;;;9.70;99.90;;;;;;4987684;28;20627;-76
2021/09/24 04:39:25;;;;;;;15.07;13.63;;;9.70;99.90;;;;;;5005316;28;20221;-77
2021/09/24 04:41:51;;;;;;;14.50;13.07;;;9.70;99.90;;;;;;5008439;28;20227;-76
2021/09/24 04:44:18;;;;;;;13.87;12.67;;;9.60;99.90;;;;;;4993285;28;20276;-76
2021/09/24 04:46:47;;;;;;;13.70;12.47;;;9.70;99.90;;;;;;5004368;28;20201;-76
2021/09/24 04:49:15;;;;;;;14.47;13.17;;;9.70;99.90;;;;;;4995238;28;20205;-77
2021/09/24 04:51:42;;;;;;;13.83;12.73;;;9.80;99.90;;;;;;4986627;28;20198;-76
2021/09/24 04:54:09;;;;;;;14.47;13.27;;;9.70;99.90;;;;;;4990263;28;20199;-76
2021/09/24 04:56:36;;;;;;;13.93;12.83;;;9.80;99.90;;;;;;5008037;28;20283;-76
2021/09/24 04:59:03;;;;;;;14.33;13.13;;;9.80;99.90;;;;;;4992908;28;20212;-77
2021/09/24 05:01:29;;;;;;;12.67;11.67;;;9.80;99.90;;;;;;5007103;28;20200;-76
2021/09/24 05:03:56;;;;;;;12.80;11.80;;;9.70;99.90;;;;;;4984965;28;20203;-76
2021/09/24 05:06:24;;;;;;;12.90;11.80;;;9.70;99.90;;;;;;5000690;28;20209;-76
2021/09/24 05:08:51;;;;;;;13.10;12.10;;;9.70;99.90;;;;;;5004687;28;20221;-76
2021/09/24 05:11:18;;;;;;;13.80;12.60;;;9.70;99.90;;;;;;5005604;28;20328;-76
2021/09/24 05:13:45;;;;;;;13.50;12.50;;;9.70;99.90;;;;;;4983870;28;20216;-76
2021/09/24 05:16:12;;;;;;;14.17;13.07;;;9.70;99.90;;;;;;5007380;28;20615;-76
2021/09/24 05:18:39;;;;;;;12.83;11.83;;;9.70;99.90;;;;;;4985390;28;20215;-76
2021/09/24 05:21:06;;;;;;;13.07;12.00;;;9.70;99.90;;;;;;4990825;28;20227;-76
2021/09/24 05:23:34;;;;;;;12.60;11.67;;;9.70;99.90;;;;;;4986010;28;20578;-76
2021/09/24 05:26:00;;;;;;;14.00;12.90;;;9.70;99.90;;;;;;4985640;28;20205;-76
2021/09/24 05:28:28;;;;;;;13.13;12.03;;;9.70;99.90;;;;;;5004278;28;20568;-76
2021/09/24 05:30:55;;;;;;;15.30;13.27;;;9.80;99.90;;;;;;5000368;28;20213;-77
2021/09/24 05:33:21;;;;;;;13.03;12.03;;;9.80;99.90;;;;;;4984428;28;20575;-77
2021/09/24 05:35:48;;;;;;;13.70;12.60;;;9.80;99.90;;;;;;5005578;28;20201;-76
2021/09/24 05:38:15;;;;;;;13.60;12.57;;;9.80;99.90;;;;;;4982180;28;20670;-76
2021/09/24 05:40:43;;;;;;;13.40;12.30;;;9.80;99.90;;;;;;4987116;28;20724;-77
2021/09/24 05:43:10;;;;;;;13.57;12.40;;;9.80;99.90;;;;;;5004170;28;20571;-77
2021/09/24 05:45:37;;;;;;;15.10;13.90;;;9.90;99.90;;;;;;5008034;28;20224;-76
2021/09/24 05:48:04;;;;;;;15.67;14.33;;;9.90;99.90;;;;;;5004768;28;20247;-77
2021/09/24 05:50:32;;;;;;;13.17;12.07;;;10.00;99.90;;;;;;5006207;28;20216;-77
2021/09/24 05:53:01;;;;;;;13.43;12.37;;;10.00;99.90;;;;;;4978656;28;20296;-76
2021/09/24 05:55:28;;;;;;;13.77;12.67;;;10.20;99.90;;;;;;5005690;28;20707;-76
2021/09/24 05:57:56;;;;;;;13.83;12.50;;;10.20;99.90;;;;;;5000758;28;20611;-76
2021/09/24 06:00:24;;;;;;;15.43;14.13;;;10.30;99.90;;;;;;5006448;28;20624;-77
2021/09/24 06:02:51;;;;;;;15.07;13.97;;;10.30;99.90;;;;;;5007115;28;20657;-77
2021/09/24 06:05:19;;;;;;;16.23;14.93;;;10.40;99.90;;;;;;5015548;28;20197;-77
2021/09/24 06:07:46;;;;;;;15.27;13.87;;;10.50;99.90;;;;;;5014670;28;20611;-77
2021/09/24 06:10:15;;;;;;;13.30;10.50;;;10.60;99.90;;;;;;5015092;28;20275;-76
2021/09/24 06:12:42;;;;;;;13.47;12.37;;;10.80;99.90;;;;;;4997467;28;20203;-76
2021/09/24 06:15:12;;;;;;;15.50;14.30;;;10.90;99.90;;;;;;5014911;28;20191;-76
2021/09/24 06:17:39;;;;;;;12.53;11.60;;;11.00;99.90;;;;;;4997298;28;20207;-76
2021/09/24 06:20:07;;;;;;;11.83;10.83;;;11.20;99.90;;;;;;5013333;28;20799;-76
2021/09/24 06:22:34;;;;;;;10.83;9.73;;;11.30;99.90;;;;;;5004479;28;20545;-76
2021/09/24 06:25:01;;;;;;;9.83;9.03;;;11.40;99.90;;;;;;4979565;28;20256;-76
2021/09/24 06:27:28;;;;;;;13.37;12.27;;;11.50;99.90;;;;;;5006317;28;20204;-76
2021/09/24 06:29:56;;;;;;;12.67;11.67;;;11.50;99.90;;;;;;5001428;28;20217;-77
2021/09/24 06:32:24;;;;;;;13.60;12.60;;;11.60;99.90;;;;;;4983469;28;20274;-77
2021/09/24 06:34:52;;;;;;;13.23;12.07;;;11.60;99.90;;;;;;4986106;28;20208;-76
2021/09/24 06:37:19;;;;;;;12.90;11.80;;;11.70;99.90;;;;;;5002928;28;20197;-76
2021/09/24 06:39:45;;;;;;;13.77;12.77;;;11.70;99.90;;;;;;4999047;23;20764;-75
2021/09/24 06:42:13;;;;;;;13.87;12.77;;;11.70;99.90;;;;;;4974871;28;20671;-74
2021/09/24 06:44:40;;;;;;;13.83;12.83;;;11.80;99.90;;;;;;4971625;28;20257;-75
2021/09/24 06:47:07;;;;;;;13.73;12.57;;;11.90;99.90;;;;;;4972002;28;20215;-75
2021/09/24 06:49:35;;;;;;;14.17;13.07;;;12.00;99.90;;;;;;4968017;28;20765;-75
2021/09/24 06:52:02;;;;;;;13.43;12.43;;;12.00;99.90;;;;;;4964695;28;20261;-75
2021/09/24 06:54:30;;;;;;;12.90;11.90;;;12.10;99.90;;;;;;4969895;28;20257;-75
2021/09/24 06:56:57;;;;;;;13.70;12.60;;;12.20;99.90;;;;;;4972287;28;20206;-75
2021/09/24 06:59:24;;;;;;;13.20;12.10;;;12.40;99.90;;;;;;4968698;28;20644;-75
2021/09/24 07:01:51;;;;;;;14.13;13.03;;;12.50;99.90;;;;;;4964711;28;20725;-75
2021/09/24 07:04:17;;;;;;;13.87;12.77;;;12.70;99.90;;;;;;4965639;28;20631;-75
2021/09/24 07:06:46;;;;;;;13.07;12.03;;;13.00;99.90;;;;;;4951924;28;20198;-75
2021/09/24 07:09:12;;;;;;;12.57;11.57;;;13.40;99.90;;;;;;4967612;28;20221;-75
2021/09/24 07:11:39;;;;;;;13.93;12.73;;;13.80;99.90;;;;;;4964564;28;20209;-75
2021/09/24 07:14:08;;;;;;;12.67;11.47;;;14.30;99.90;;;;;;4964723;28;20700;-75
2021/09/24 07:16:36;;;;;;;13.07;12.07;;;14.90;99.90;;;;;;4964532;28;20207;-76
2021/09/24 07:19:03;;;;;;;13.20;12.10;;;15.40;99.90;;;;;;4967384;28;20197;-75
2021/09/24 07:21:30;;;;;;;10.90;10.00;;;15.80;99.90;;;;;;4969222;28;20273;-75
2021/09/24 07:23:59;;;;;;;12.13;11.20;;;16.20;99.90;;;;;;4969109;28;20212;-75
2021/09/24 07:26:27;;;;;;;13.00;11.90;;;16.70;99.90;;;;;;4955132;28;20208;-76
2021/09/24 07:28:54;;;;;;;12.57;11.60;;;17.20;99.90;;;;;;4972374;28;20193;-75
2021/09/24 07:31:21;;;;;;;12.97;12.03;;;17.50;99.90;;;;;;4965356;28;20228;-76
2021/09/24 07:33:48;;;;;;;12.37;11.47;;;17.80;99.90;;;;;;4968106;28;20255;-75
2021/09/24 07:36:16;;;;;;;11.90;11.00;;;18.00;99.90;;;;;;4952177;29;20209;-75
2021/09/24 07:38:43;;;;;;;11.97;10.77;;;18.10;99.90;;;;;;4955273;28;20631;-75
2021/09/24 07:41:11;;;;;;;12.13;11.23;;;18.60;99.90;;;;;;4953257;28;20292;-76
2021/09/24 07:43:38;;;;;;;11.37;10.50;;;19.00;99.90;;;;;;4967833;28;20722;-76
2021/09/24 07:46:05;;;;;;;11.00;10.20;;;19.20;99.90;;;;;;4967919;28;20621;-76
2021/09/24 07:48:32;;;;;;;11.23;10.23;;;19.30;99.90;;;;;;4967689;28;20664;-75
2021/09/24 07:51:01;;;;;;;10.87;9.93;;;19.40;99.90;;;;;;4971157;28;20227;-76
2021/09/24 07:53:28;;;;;;;11.30;10.30;;;19.50;99.90;;;;;;4972415;28;20203;-75
2021/09/24 07:55:55;;;;;;;11.20;10.30;;;19.80;99.90;;;;;;4950492;29;20299;-75
2021/09/24 07:58:24;;;;;;;12.10;11.20;;;19.90;99.90;;;;;;4971839;28;20234;-76
2021/09/24 08:00:51;;;;;;;11.93;10.93;;;20.20;99.90;;;;;;4967864;28;20222;-75
2021/09/24 08:03:17;;;;;;;11.63;10.70;;;20.50;99.90;;;;;;4967730;28;20205;-75
2021/09/24 08:05:44;;;;;;;11.07;10.03;;;20.70;99.90;;;;;;4950359;28;20563;-76
2021/09/24 08:08:11;;;;;;;11.40;10.40;;;20.80;99.90;;;;;;4969242;28;20202;-76
2021/09/24 08:10:38;;;;;;;12.57;11.57;;;21.00;99.90;;;;;;4971887;28;20687;-76
2021/09/24 08:13:04;;;;;;;11.93;10.93;;;21.00;99.90;;;;;;4949997;29;20670;-75
2021/09/24 08:15:34;;;;;;;12.40;11.50;;;21.00;99.90;;;;;;4971969;28;20205;-76
2021/09/24 08:18:01;;;;;;;12.20;11.20;;;21.20;99.90;;;;;;4968857;28;20202;-76
2021/09/24 08:20:28;;;;;;;12.50;11.60;;;21.40;99.90;;;;;;4949624;28;20247;-76
2021/09/24 08:22:55;;;;;;;13.10;12.00;;;21.50;99.90;;;;;;4949738;28;20737;-76
2021/09/24 08:25:22;;;;;;;12.20;11.30;;;21.70;99.90;;;;;;4973090;28;20733;-76
2021/09/24 08:27:48;;;;;;;12.80;11.80;;;21.80;99.90;;;;;;4971978;28;20261;-76
2021/09/24 08:30:17;;;;;;;12.37;11.37;;;21.90;99.90;;;;;;4967267;28;20219;-75
2021/09/24 08:32:45;;;;;;;11.97;11.03;;;21.90;99.90;;;;;;4971676;28;20205;-75
2021/09/24 08:35:14;;;;;;;12.30;11.40;;;22.10;99.90;;;;;;4968954;28;20202;-75
2021/09/24 08:37:43;;;;;;;12.57;11.60;;;22.40;99.90;;;;;;4956307;28;20565;-76
2021/09/24 08:40:11;;;;;;;13.13;12.20;;;22.50;99.90;;;;;;4966705;28;20276;-75
2021/09/24 08:42:39;;;;;;;13.27;12.27;;;22.60;99.90;;;;;;4970452;28;20223;-75
2021/09/24 08:45:07;;;;;;;13.07;12.10;;;22.70;99.90;;;;;;4966990;28;20194;-75
2021/09/24 08:47:36;;;;;;;12.57;11.47;;;22.80;99.90;;;;;;4949511;28;20562;-75
2021/09/24 08:50:07;;;;;;;12.70;11.80;;;22.90;99.90;;;;;;4952094;29;20776;-75
2021/09/24 08:52:34;;;;;;;12.80;11.90;;;23.10;99.90;;;;;;4953079;28;20653;-75
2021/09/24 08:55:01;;;;;;;12.50;11.60;;;23.20;99.90;;;;;;4955493;28;20265;-76
2021/09/24 08:57:27;;;;;;;11.97;11.07;;;23.20;99.90;;;;;;4966482;28;20211;-76
2021/09/24 08:59:54;;;;;;;12.23;11.13;;;23.10;99.90;;;;;;4949318;28;20214;-75
2021/09/24 09:02:21;;;;;;;11.27;10.47;;;23.20;99.90;;;;;;4949724;28;20273;-75
2021/09/24 09:04:48;;;;;;;11.47;10.50;;;23.20;99.90;;;;;;4974344;28;20248;-75
2021/09/24 09:07:21;;;;;;;11.17;10.17;;;23.40;99.90;;;;;;4967816;28;20199;-76
2021/09/24 09:09:51;;;;;;;12.23;11.43;;;23.60;99.90;;;;;;4970925;28;20293;-75
2021/09/24 09:12:21;;;;;;;12.50;11.60;;;23.70;99.90;;;;;;4970245;28;20211;-75
2021/09/24 09:14:59;;;;;;;12.10;11.20;;;23.80;99.90;;;;;;4949094;28;20206;-75
2021/09/24 09:17:30;;;;;;;10.83;10.03;;;23.70;99.90;;;;;;4971602;28;20597;-75
2021/09/24 09:20:27;;;;;;;11.43;10.60;;;23.80;99.90;;;;;;4966070;28;20223;-75
2021/09/24 09:23:09;;;;;;;10.17;7.10;;;23.90;99.90;;;;;;4930361;28;20203;-76
2021/09/24 09:25:39;;;;;;;9.67;8.93;;;23.70;99.90;;;;;;4949313;28;20207;-76
2021/09/24 09:28:12;;;;;;;7.27;6.60;;;23.80;99.90;;;;;;4961831;28;20202;-76
2021/09/24 09:30:40;;;;;;;5.70;5.17;;;23.80;99.90;;;;;;4970427;28;20211;-75
2021/09/24 09:33:12;;;;;;;6.33;5.73;;;23.90;99.90;;;;;;4951115;28;20205;-76
2021/09/24 09:35:41;;;;;;;8.03;5.37;;;23.90;99.90;;;;;;4966010;28;20671;-76
2021/09/24 09:38:20;;;;;;;5.30;4.73;;;24.00;99.90;;;;;;4965858;28;20613;-76
2021/09/24 09:40:52;;;;;;;6.20;5.60;;;24.00;99.90;;;;;;4965836;28;20729;-75
2021/09/24 09:43:24;;;;;;;5.97;5.37;;;23.90;99.90;;;;;;4952077;28;20252;-76
2021/09/24 09:45:52;;;;;;;7.80;7.10;;;23.80;99.90;;;;;;4961011;28;20659;-75
2021/09/24 09:48:18;;;;;;;7.60;6.90;;;23.80;99.90;;;;;;4961072;28;20202;-76
2021/09/24 09:50:46;;;;;;;8.10;7.43;;;23.70;99.90;;;;;;4955659;28;20218;-75
2021/09/24 09:53:17;;;;;;;11.73;10.93;;;23.50;99.90;;;;;;4953910;28;20206;-76
2021/09/24 09:55:50;;;;;;;12.77;11.87;;;23.50;99.90;;;;;;4965487;28;20190;-76
2021/09/24 09:58:18;;;;;;;11.93;10.93;;;23.30;99.90;;;;;;4964073;28;20264;-76
2021/09/24 10:01:03;;;;;;;11.17;10.37;;;23.30;99.90;;;;;;4948106;28;20280;-75
2021/09/24 10:03:34;;;;;;;11.33;10.53;;;23.20;99.90;;;;;;4965427;28;20663;-76
2021/09/24 10:06:03;;;;;;;11.10;10.40;;;23.10;99.90;;;;;;4951279;29;20198;-75
2021/09/24 10:08:33;;;;;;;11.00;10.10;;;22.90;99.90;;;;;;4962449;28;20202;-76
2021/09/24 10:11:06;;;;;;;11.57;10.57;;;23.00;99.90;;;;;;4968533;28;20225;-76
2021/09/24 10:13:37;;;;;;;11.10;10.30;;;22.90;99.90;;;;;;4969862;28;20625;-75
2021/09/24 10:16:05;;;;;;;10.87;9.87;;;23.00;99.90;;;;;;4949819;28;20815;-75
2021/09/24 10:18:33;;;;;;;5.53;4.93;;;22.80;99.90;;;;;;4953798;28;20627;-76
2021/09/24 10:21:00;;;;;;;11.43;10.63;;;22.60;99.90;;;;;;4947692;28;20260;-75
2021/09/24 10:23:26;;;;;;;7.10;6.53;;;22.70;99.90;;;;;;4947888;28;20199;-75
2021/09/24 10:26:00;;;;;;;5.17;4.67;;;22.60;99.90;;;;;;4969353;28;20222;-75
2021/09/24 10:28:34;;;;;;;11.47;10.67;;;22.50;99.90;;;;;;4969509;28;20205;-76
2021/09/24 10:31:02;;;;;;;12.27;11.37;;;22.60;99.90;;;;;;4963456;28;20217;-75
2021/09/24 10:33:50;;;;;;;11.20;10.40;;;22.40;99.90;;;;;;4969728;28;20260;-76
2021/09/24 10:36:42;;;;;;;11.30;10.50;;;22.20;99.90;;;;;;4951405;28;20209;-75
2021/09/24 10:39:35;;;;;;;11.57;10.77;;;21.90;99.90;;;;;;4967074;28;20284;-75
2021/09/24 10:42:48;;;;;;;10.70;9.90;;;21.80;99.90;;;;;;4967748;28;20577;-75
2021/09/24 10:45:21;;;;;;;10.80;10.10;;;21.80;99.90;;;;;;4961637;28;20204;-75
2021/09/24 10:48:00;;;;;;;11.57;10.77;;;21.70;99.90;;;;;;4969318;28;20614;-75
2021/09/24 10:51:06;;;;;;;11.10;10.40;;;21.70;99.90;;;;;;4969389;28;20225;-76
2021/09/24 10:53:46;;;;;;;11.57;10.67;;;21.70;99.90;;;;;;4970954;28;20733;-76
2021/09/24 10:56:26;;;;;;;11.47;10.67;;;21.60;99.90;;;;;;4950282;28;20619;-75
2021/09/24 10:58:54;;;;;;;11.50;10.60;;;21.60;99.90;;;;;;4965744;28;20205;-76
2021/09/24 11:01:40;;;;;;;9.17;8.57;;;21.60;99.90;;;;;;4972655;28;20194;-76
2021/09/24 11:04:11;;;;;;;10.03;9.33;;;21.60;99.90;;;;;;4960309;28;20226;-76
2021/09/24 11:06:41;;;;;;;7.17;6.57;;;21.50;99.90;;;;;;4969281;28;20205;-75
2021/09/24 11:09:12;;;;;;;5.10;4.60;;;21.60;99.90;;;;;;4949397;28;20289;-75
2021/09/24 11:11:41;;;;;;;5.50;5.00;;;21.50;99.90;;;;;;4964391;28;20214;-75
2021/09/24 11:14:34;;;;;;;6.37;5.13;;;21.50;99.90;;;;;;4947136;28;20253;-76
2021/09/24 11:17:03;;;;;;;5.67;5.03;;;21.40;99.90;;;;;;4965426;28;20201;-75
2021/09/24 11:19:36;;;;;;;6.53;4.90;;;21.20;99.90;;;;;;4967764;28;20315;-75
2021/09/24 11:22:16;;;;;;;10.03;9.33;;;21.20;99.90;;;;;;4964519;28;20593;-75
2021/09/24 11:24:46;;;;;;;5.83;5.23;;;21.20;99.90;;;;;;4964600;28;20206;-75
2021/09/24 11:27:15;;;;;;;4.63;4.20;;;21.30;99.90;;;;;;4970886;28;20205;-76
2021/09/24 11:30:17;;;;;;;5.00;4.50;;;21.30;99.90;;;;;;4965878;28;20229;-75
2021/09/24 11:32:45;;;;;;;4.50;4.10;;;21.40;99.90;;;;;;4968875;28;20228;-75
2021/09/24 11:35:13;;;;;;;4.70;4.20;;;21.30;99.90;;;;;;4967405;28;20205;-75
2021/09/24 11:37:41;;;;;;;4.90;4.40;;;21.30;99.90;;;;;;4947119;28;20206;-75
2021/09/24 11:40:10;;;;;;;4.93;4.43;;;21.40;99.90;;;;;;4964260;28;20229;-75
2021/09/24 11:42:40;;;;;;;5.10;4.70;;;21.40;99.90;;;;;;4968028;28;20256;-75
2021/09/24 11:45:11;;;;;;;4.13;3.73;;;21.50;99.90;;;;;;4964277;28;20257;-75
2021/09/24 11:47:41;;;;;;;6.00;5.03;;;21.50;99.90;;;;;;4947140;28;20206;-75
2021/09/24 11:50:10;;;;;;;4.60;4.20;;;21.60;99.90;;;;;;4966524;28;20244;-76
2021/09/24 11:52:41;;;;;;;6.70;6.20;;;21.40;99.90;;;;;;4969169;28;20734;-75
2021/09/24 11:55:28;;;;;;;8.10;7.50;;;21.40;99.90;;;;;;4953457;28;20236;-75
2021/09/24 11:57:58;;;;;;;10.30;9.50;;;21.40;99.90;;;;;;4963417;28;20205;-75
2021/09/24 12:00:29;;;;;;;9.97;9.27;;;21.40;99.90;;;;;;4971174;28;20280;-75
2021/09/24 12:03:14;;;;;;;9.60;9.00;;;21.40;99.90;;;;;;4964179;28;20656;-75
2021/09/24 12:05:48;;;;;;;9.57;8.90;;;21.40;99.90;;;;;;4963773;28;20222;-75
2021/09/24 12:08:16;;;;;;;9.77;9.07;;;21.50;99.90;;;;;;4964944;28;20670;-75
2021/09/24 12:10:43;;;;;;;9.20;8.60;;;21.50;99.90;;;;;;4968039;28;20277;-75
2021/09/24 12:13:12;;;;;;;8.97;8.37;;;21.60;99.90;;;;;;4945143;28;20240;-75
2021/09/24 12:15:51;;;;;;;9.47;8.87;;;21.50;99.90;;;;;;4971464;28;20212;-75
2021/09/24 12:18:18;;;;;;;9.87;9.23;;;21.60;99.90;;;;;;4963571;28;20554;-76
2021/09/24 12:20:46;;;;;;;9.47;8.77;;;21.50;99.90;;;;;;4974536;28;20263;-75
2021/09/24 12:23:15;;;;;;;9.90;9.20;;;21.50;99.90;;;;;;4950006;28;20209;-75
2021/09/24 12:25:42;;;;;;;9.23;8.63;;;21.50;99.90;;;;;;4971075;28;20674;-75
2021/09/24 12:28:10;;;;;;;9.70;9.00;;;21.60;99.90;;;;;;4949649;28;20652;-75
2021/09/24 12:30:39;;;;;;;9.53;8.83;;;21.50;99.90;;;;;;4966917;28;20265;-75
2021/09/24 12:33:15;;;;;;;9.90;9.20;;;21.60;99.90;;;;;;4952160;28;20222;-75
2021/09/24 12:35:55;;;;;;;9.00;8.40;;;21.50;99.90;;;;;;4973048;28;20611;-75
2021/09/24 12:38:25;;;;;;;8.87;8.27;;;21.50;99.90;;;;;;4950094;29;20198;-75
2021/09/24 12:41:07;;;;;;;9.30;8.70;;;21.50;99.90;;;;;;4973983;28;20225;-75
2021/09/24 12:43:35;;;;;;;9.07;8.47;;;21.60;99.90;;;;;;4967104;28;20210;-76